Bookmark and Share
Track history (hours):
 

Flinterbirka

Last reported at 2014-Apr-17 03:33 UTC. Time now 2014-Apr-17 04:04 UTC.
Position N 53°21' W 006°13'.

Length 81 m; draft 3.7 m.

Type: Cargo ship. MMSI: 246525000.

NotesDate/timePositionNaut miles runAvg speedWind from/ knotsBaromVisibWave heightAir tempDewpointWater temp
2014-Apr-17 03:33N 53°21' W 006°13'0 0.0
2014-Apr-17 02:33N 53°21' W 006°13'0 0.0
2014-Apr-17 01:32N 53°21' W 006°13'0 0.0
2014-Apr-17 00:32N 53°21' W 006°13'0 0.0
2014-Apr-16 23:32N 53°21' W 006°13'0 0.0
2014-Apr-16 22:31N 53°21' W 006°13'0 0.0
2014-Apr-16 21:31N 53°21' W 006°13'0 0.0
2014-Apr-16 20:30N 53°21' W 006°13'0 0.0
2014-Apr-16 19:30N 53°21' W 006°13'0 0.0
2014-Apr-16 18:29N 53°21' W 006°13'0 0.0
2014-Apr-16 17:23N 53°21' W 006°13'0 0.0
2014-Apr-16 16:29N 53°21' W 006°13'0 0.0
2014-Apr-16 15:28N 53°21' W 006°13'0 0.0
2014-Apr-16 14:28N 53°21' W 006°13'0 0.0
2014-Apr-16 13:27N 53°21' W 006°13'0 0.0
2014-Apr-16 12:33N 53°21' W 006°13'87 8.7
2014-Apr-16 02:33N 53°34' W 003°49'1110.6
2014-Apr-16 01:33N 53°34' W 003°31'1010.1
2014-Apr-16 00:33N 53°31' W 003°14'9 9.5
2014-Apr-15 23:33N 53°26' W 003°01'6 0.1
2014-Apr-13 22:33N 53°21' W 002°55'5 5.2
2014-Apr-13 21:34N 53°25' W 003°01'9 9.5
2014-Apr-13 20:34N 53°31' W 003°12'7 6.5
2014-Apr-13 19:27N 53°31' W 003°24'4 4.5
2014-Apr-13 18:33N 53°31' W 003°31'8 7.6
2014-Apr-13 17:33N 53°32' W 003°44'1110.4
2014-Apr-13 16:27N 53°39' W 003°60'1010.6
2014-Apr-13 15:32N 53°44' W 004°14'44 8.8
2014-Apr-13 10:33N 54°16' W 005°05'1010.4
2014-Apr-13 09:33N 54°26' W 005°13'1111.1
2014-Apr-13 08:33N 54°35' W 005°22'1212.0
2014-Apr-13 07:34N 54°46' W 005°31'2912.6
2014-Apr-13 05:14N 55°12' W 005°56'912.6
2014-Apr-13 04:33N 55°19' W 006°05'1010.4
2014-Apr-13 03:33N 55°25' W 006°19'1010.0
2014-Apr-13 02:33N 55°34' W 006°29'8 8.3
2014-Apr-13 01:33N 55°41' W 006°35'8 7.9
2014-Apr-13 00:34N 55°48' W 006°42'138 8.6
2014-Apr-12 08:34N 58°04' W 006°09'10 9.6
2014-Apr-12 07:33N 58°11' W 005°57'7 7.5
2014-Apr-12 06:33N 58°17' W 005°47'5 5.2
2014-Apr-12 05:33N 58°21' W 005°40'47 5.1
2014-Apr-11 20:20N 58°41' W 004°20'6 7.7
2014-Apr-11 19:33N 58°42' W 004°09'8 8.2
2014-Apr-11 18:33N 58°42' W 003°53'8 8.0
2014-Apr-11 17:33N 58°43' W 003°38'9 8.9
2014-Apr-11 16:33N 58°43' W 003°21'10 9.7
2014-Apr-11 15:33N 58°43' W 003°02'18210.6
2014-Apr-10 22:30N 58°12' E 002°40'23810.8
2014-Apr-10 00:24N 57°49' E 010°07'910.9
2014-Apr-09 23:33N 57°49' E 010°25'1110.6
2014-Apr-09 22:33N 57°48' E 010°45'1110.8
2014-Apr-09 21:33N 57°37' E 010°45'1211.3
2014-Apr-09 20:31N 57°25' E 010°43'  

Dump ship's entire track history

sailing weather and tide predictions

Flinterbirka — PHFQ — position and weather